La Ronge Airport
CYVC : now visible

Airfield :











YOU CAN JOIN US ON...

 
LOGIN :

Register | Disclaimer

   EN    FR    IT 

 









Legend :    VFR   Marginal VFR   IFR   Intensive IFR   Very Intensive IFR
Visi :
Ceiling :
>= 8 km
>= 3000ft
5 to 8 km
1000 to 3000 ft
1500m to 5 km
500 to 1000 ft
800 to 1500m
200 to 500 ft
< 800m
< 200 ft
Symbols :   Thunderstorms  Fog  Heavy snow  Heavy precipitations  Wind > 20 kt






- Airport Elevation : 1242 ft
- IATA code : YVC


CYVC - La Ronge

CURRENT METAR :
  • 280600Z 15004KT 15SM OVC005 M09/M10 A3002 RMK ST8 SLP198

EXPIRED METARs :
  • 280500Z 00000KT 15SM OVC005 M10/M11 A3002 RMK ST8 SLP198
  • 280400Z 18002KT 15SM OVC005 M11/M12 A3002 RMK ST8 SLP200
  • 280334Z 00000KT 15SM OVC005 M11/M12 A3002 RMK ST8 SLP199

TAF TAF CYVC
Valid from the 28 at 01:00 until the 28 at 13:00 UTC


280038Z 2801/2813 16005KT P6SM OVC010
TEMPO 2801/2813 2SM BR OVC005 RMK NXT FCST BY 280700Z



MET'MAP, your aeronautical weather chart ! - Copyright ORBIFLY December 2007 - Disclaimer

ORBIFLY MET'MAP TEAM :

Programming & Development : Alexandra Zaïnal
Concept & original design : Baudouin d'Aumeries
Assistance for programming : Marc-Olivier Méhu
Technical & hardware support : Manuel Goepfert

Contact : metmap@orbifly.com




SOURCES & CREDITS :

   NOAA       Earth
Advisory